Time;durP1;ratioP1;P1;durP2;ratioP2;P2;SDS_P1;SDS_P2;PMS_P1;PMS_P2;Temp;Humidity;BMP_temperature;BMP_pressure;BME280_temperature;BME280_humidity;BME280_pressure;Samples;Min_cycle;Max_cycle;Signal;HPM_P1;HPM_P2
2021/06/09 00:04:28;;;;;;;10.85;7.78;;;17.40;99.90;;;;;;10275723;28;20109;-58
2021/06/09 00:09:30;;;;;;;11.40;8.13;;;17.40;99.90;;;;;;10293925;28;20078;-58
2021/06/09 00:14:31;;;;;;;9.25;6.85;;;17.40;99.90;;;;;;10293411;28;20078;-59
2021/06/09 00:19:33;;;;;;;9.77;6.55;;;17.30;99.90;;;;;;10301556;28;20412;-58
2021/06/09 00:24:35;;;;;;;9.18;6.70;;;17.30;99.90;;;;;;10295333;28;20113;-58
2021/06/09 00:29:37;;;;;;;10.50;7.72;;;17.30;99.90;;;;;;10281743;28;20050;-59
2021/06/09 00:34:39;;;;;;;11.55;7.47;;;17.20;99.90;;;;;;10295107;28;20046;-58
2021/06/09 00:39:42;;;;;;;10.63;7.47;;;17.20;99.90;;;;;;10298216;28;20047;-59
2021/06/09 00:44:44;;;;;;;9.10;7.63;;;17.00;99.90;;;;;;10301163;28;20042;-59
2021/06/09 00:49:45;;;;;;;13.57;7.57;;;17.00;99.90;;;;;;10310804;28;20069;-58
2021/06/09 00:54:47;;;;;;;10.18;7.72;;;17.00;99.90;;;;;;10313321;28;20486;-58
2021/06/09 00:59:49;;;;;;;11.40;7.93;;;16.90;99.90;;;;;;10313723;28;20131;-58
2021/06/09 01:04:50;;;;;;;12.18;7.63;;;16.80;99.90;;;;;;10297670;28;20074;-59
2021/06/09 01:09:52;;;;;;;11.02;7.35;;;16.80;99.90;;;;;;10274792;28;20047;-58
2021/06/09 01:14:54;;;;;;;10.02;8.13;;;16.80;99.90;;;;;;10287657;28;20075;-59
2021/06/09 01:19:55;;;;;;;10.07;6.80;;;16.80;99.90;;;;;;10282849;28;20120;-59
2021/06/09 01:24:57;;;;;;;10.52;8.45;;;16.70;99.90;;;;;;10302354;28;20050;-60
2021/06/09 01:30:00;;;;;;;12.90;7.47;;;16.60;99.90;;;;;;10282035;28;20055;-60
2021/06/09 01:35:02;;;;;;;12.35;8.18;;;16.50;99.90;;;;;;10292213;28;20050;-61
2021/06/09 01:40:08;;;;;;;12.10;8.13;;;16.50;99.90;;;;;;10277123;28;20128;-59
2021/06/09 01:45:14;;;;;;;10.43;8.05;;;16.50;99.90;;;;;;10286014;28;20078;-60
2021/06/09 01:50:16;;;;;;;15.73;8.50;;;16.40;99.90;;;;;;10288738;28;20431;-58
2021/06/09 01:55:20;;;;;;;11.40;8.10;;;16.40;99.90;;;;;;10303478;28;20131;-58
2021/06/09 02:00:26;;;;;;;11.00;7.70;;;16.40;99.90;;;;;;10275620;28;20117;-59
2021/06/09 02:05:31;;;;;;;11.70;9.48;;;16.40;99.90;;;;;;10007675;28;20480;-58
2021/06/09 02:10:34;;;;;;;11.02;9.75;;;16.40;99.90;;;;;;10019345;28;20128;-58
2021/06/09 02:15:37;;;;;;;12.48;8.45;;;16.40;99.90;;;;;;10188450;28;20058;-58
2021/06/09 02:20:46;;;;;;;12.65;8.35;;;16.40;99.90;;;;;;10302047;28;20050;-58
2021/06/09 02:25:50;;;;;;;13.10;8.73;;;16.30;99.90;;;;;;10278067;28;20051;-58
2021/06/09 02:30:53;;;;;;;10.68;8.27;;;16.30;99.90;;;;;;10290096;28;20062;-58
2021/06/09 02:35:57;;;;;;;9.55;7.57;;;16.20;99.90;;;;;;10291574;28;20526;-58
2021/06/09 02:40:59;;;;;;;14.98;9.35;;;16.10;99.90;;;;;;10290902;28;20612;-58
2021/06/09 02:46:10;;;;;;;11.52;8.20;;;16.00;99.90;;;;;;10294229;28;20050;-58
2021/06/09 02:51:17;;;;;;;22.55;14.52;;;15.80;99.90;;;;;;10297329;28;20077;-58
2021/06/09 02:56:33;;;;;;;11.27;9.23;;;15.90;99.90;;;;;;10286723;28;20120;-58
2021/06/09 03:01:53;;;;;;;17.10;8.30;;;16.00;99.90;;;;;;10280553;28;21540;-58
2021/06/09 03:07:11;;;;;;;18.55;9.63;;;15.80;99.90;;;;;;10277369;28;20047;-58
2021/06/09 03:12:27;;;;;;;15.68;8.88;;;15.90;99.90;;;;;;10289363;28;20082;-59
2021/06/09 03:17:33;;;;;;;12.98;9.25;;;15.90;99.90;;;;;;10237841;28;20078;-61
2021/06/09 03:22:51;;;;;;;14.00;8.90;;;15.90;99.90;;;;;;10289070;28;20046;-61
2021/06/09 03:27:59;;;;;;;14.75;9.10;;;15.80;99.90;;;;;;10282891;28;20721;-61
2021/06/09 03:33:04;;;;;;;15.05;9.70;;;15.80;99.90;;;;;;10278579;28;20117;-60
2021/06/09 03:38:12;;;;;;;11.27;8.18;;;15.70;99.90;;;;;;10281910;28;20054;-61
2021/06/09 03:43:15;;;;;;;12.65;9.00;;;15.70;99.90;;;;;;10290804;28;20093;-61
2021/06/09 03:48:19;;;;;;;12.85;9.27;;;15.80;99.90;;;;;;10302323;28;20054;-61
2021/06/09 03:53:22;;;;;;;13.68;9.02;;;15.70;99.90;;;;;;10302594;28;20064;-61
2021/06/09 03:58:27;;;;;;;13.27;9.25;;;15.60;99.90;;;;;;10285479;28;20046;-61
2021/06/09 04:03:29;;;;;;;19.80;9.75;;;15.60;99.90;;;;;;10279445;28;20505;-62
2021/06/09 04:08:32;;;;;;;14.90;10.27;;;15.70;99.90;;;;;;10280610;28;20129;-62
2021/06/09 04:13:36;;;;;;;14.40;9.73;;;15.70;99.90;;;;;;10294513;28;20054;-62
2021/06/09 04:18:42;;;;;;;15.55;9.52;;;15.80;99.90;;;;;;10278119;28;20098;-61
2021/06/09 04:23:44;;;;;;;15.20;10.38;;;15.80;99.90;;;;;;10303400;28;20077;-62
2021/06/09 04:28:46;;;;;;;16.88;10.52;;;15.90;99.90;;;;;;10295808;28;20132;-61
2021/06/09 04:33:57;;;;;;;17.60;9.63;;;16.00;99.90;;;;;;10275263;28;20559;-62
2021/06/09 04:38:59;;;;;;;20.08;9.52;;;16.00;99.90;;;;;;10277523;28;20528;-62
2021/06/09 04:44:00;;;;;;;13.98;9.32;;;16.10;99.90;;;;;;10282597;28;20136;-62
2021/06/09 04:49:05;;;;;;;19.85;9.50;;;16.20;99.90;;;;;;10286593;28;20043;-62
2021/06/09 04:54:07;;;;;;;12.95;9.43;;;16.20;99.90;;;;;;10275176;28;20082;-62
2021/06/09 04:59:09;;;;;;;12.82;8.68;;;16.40;99.90;;;;;;10282154;28;20052;-61
2021/06/09 05:04:12;;;;;;;13.00;9.13;;;16.50;99.90;;;;;;10277878;28;20470;-62
2021/06/09 05:09:13;;;;;;;15.48;8.77;;;16.70;99.90;;;;;;10296767;28;20054;-62
2021/06/09 05:14:27;;;;;;;16.75;8.93;;;16.80;99.90;;;;;;10294530;28;20454;-62
2021/06/09 05:19:31;;;;;;;15.60;9.55;;;16.90;99.90;;;;;;10241810;28;20109;-62
2021/06/09 05:24:35;;;;;;;14.00;9.20;;;17.10;99.90;;;;;;10281329;28;20105;-62
2021/06/09 05:29:38;;;;;;;16.48;9.70;;;17.30;99.90;;;;;;10288606;28;20136;-62
2021/06/09 05:34:41;;;;;;;12.82;9.20;;;17.50;99.90;;;;;;10276548;28;20066;-62
2021/06/09 05:39:43;;;;;;;12.82;8.48;;;17.70;99.90;;;;;;10282375;28;20109;-62
2021/06/09 05:44:48;;;;;;;10.15;8.02;;;17.90;99.90;;;;;;10296588;28;20062;-60
2021/06/09 05:50:09;;;;;;;15.93;8.68;;;18.00;99.90;;;;;;10299226;28;20054;-60
2021/06/09 05:55:16;;;;;;;15.48;7.97;;;18.20;99.90;;;;;;10286336;28;20058;-60
2021/06/09 06:00:24;;;;;;;12.50;8.35;;;18.30;99.90;;;;;;10287426;28;20440;-61
2021/06/09 06:05:27;;;;;;;10.48;8.23;;;18.40;99.90;;;;;;10288185;28;20101;-61
2021/06/09 06:10:28;;;;;;;13.35;8.70;;;18.50;99.90;;;;;;10299172;28;20469;-61
2021/06/09 06:15:31;;;;;;;11.23;7.93;;;18.60;99.90;;;;;;10296881;28;20088;-61
2021/06/09 06:20:33;;;;;;;10.88;8.25;;;18.70;99.90;;;;;;10282149;28;20116;-61
2021/06/09 06:25:35;;;;;;;12.60;8.02;;;18.90;99.90;;;;;;10285022;28;20419;-61
2021/06/09 06:30:36;;;;;;;12.35;7.70;;;19.00;99.90;;;;;;10297760;28;20145;-61
2021/06/09 06:35:39;;;;;;;12.52;8.15;;;19.30;99.90;;;;;;10282656;28;20050;-61
2021/06/09 06:40:42;;;;;;;12.10;8.75;;;19.30;99.90;;;;;;10288599;28;20054;-61
2021/06/09 06:45:44;;;;;;;18.05;8.18;;;19.40;99.90;;;;;;10286987;28;20120;-61
2021/06/09 06:50:46;;;;;;;13.02;8.40;;;19.60;99.90;;;;;;10297147;28;20085;-61
2021/06/09 06:55:48;;;;;;;12.15;8.23;;;19.60;99.90;;;;;;10284138;28;20113;-61
2021/06/09 07:00:50;;;;;;;15.93;9.35;;;19.70;99.90;;;;;;10282797;28;20602;-61
2021/06/09 07:05:54;;;;;;;12.95;8.02;;;19.80;99.90;;;;;;10309458;28;20054;-62
2021/06/09 07:10:55;;;;;;;11.57;8.02;;;20.00;99.90;;;;;;10279445;28;20062;-61
2021/06/09 07:16:01;;;;;;;13.65;8.05;;;20.20;99.90;;;;;;10291027;28;20050;-61
2021/06/09 07:21:03;;;;;;;9.30;7.75;;;20.30;99.90;;;;;;10308373;28;20046;-60
2021/06/09 07:26:09;;;;;;;11.40;7.50;;;20.60;99.90;;;;;;10301098;28;20097;-61
2021/06/09 07:31:12;;;;;;;10.38;7.03;;;20.90;99.90;;;;;;10289824;28;20092;-61
2021/06/09 07:36:19;;;;;;;10.52;7.15;;;21.10;99.90;;;;;;10282402;28;20049;-61
2021/06/09 07:41:25;;;;;;;8.38;6.50;;;21.20;99.90;;;;;;10278348;28;20086;-60
2021/06/09 07:46:28;;;;;;;;;;;21.20;99.90;;;;;;10284931;28;20062;-62
2021/06/09 07:51:31;;;;;;;10.48;7.47;;;21.30;99.90;;;;;;10279731;28;20405;-61
2021/06/09 07:56:36;;;;;;;12.98;7.03;;;21.30;99.90;;;;;;10294497;28;20589;-61
2021/06/09 08:01:41;;;;;;;9.82;6.78;;;21.50;99.90;;;;;;10289477;28;20058;-62
2021/06/09 08:06:43;;;;;;;8.75;6.95;;;21.50;99.90;;;;;;10288508;28;20499;-62
2021/06/09 08:11:45;;;;;;;9.73;7.40;;;21.70;99.90;;;;;;10274777;28;20062;-62
2021/06/09 08:16:47;;;;;;;8.10;6.75;;;21.80;99.90;;;;;;10283912;28;20061;-61
2021/06/09 08:21:49;;;;;;;11.45;6.68;;;22.00;99.90;;;;;;10292913;28;20062;-62
2021/06/09 08:26:54;;;;;;;8.05;7.25;;;21.90;99.90;;;;;;10281660;28;20038;-62
2021/06/09 08:31:55;;;;;;;8.20;6.38;;;22.20;99.90;;;;;;10282259;28;20055;-62
2021/06/09 08:36:57;;;;;;;6.82;6.13;;;22.30;99.90;;;;;;10287805;28;20379;-62
2021/06/09 08:42:03;;;;;;;8.75;6.32;;;22.40;99.90;;;;;;10278553;28;20092;-62
2021/06/09 08:47:05;;;;;;;10.20;7.17;;;22.80;99.90;;;;;;10290618;28;20121;-62
2021/06/09 08:52:10;;;;;;;9.30;6.75;;;23.20;99.90;;;;;;10293348;28;20686;-62
2021/06/09 08:57:13;;;;;;;6.95;6.25;;;23.40;99.90;;;;;;10307024;28;20042;-62
2021/06/09 09:02:15;;;;;;;10.10;7.25;;;23.50;99.90;;;;;;10297339;28;20104;-62
2021/06/09 09:07:17;;;;;;;10.80;7.32;;;23.60;99.90;;;;;;10288203;28;20050;-62
2021/06/09 09:12:19;;;;;;;7.95;6.72;;;23.90;99.90;;;;;;10284654;28;20061;-62
2021/06/09 09:17:21;;;;;;;7.80;6.03;;;23.60;99.90;;;;;;10297295;28;20580;-62
2021/06/09 09:22:37;;;;;;;8.85;6.82;;;24.20;99.90;;;;;;10299158;28;20104;-63
2021/06/09 09:27:39;;;;;;;;;;;24.70;98.90;;;;;;10292404;28;20070;-62
2021/06/09 09:33:01;;;;;;;10.23;7.15;;;24.60;95.90;;;;;;10305774;28;20006;-62
2021/06/09 09:38:30;;;;;;;7.85;6.70;;;25.10;96.70;;;;;;10245210;28;20065;-63
2021/06/09 09:43:55;;;;;;;6.55;5.68;;;24.90;93.40;;;;;;10242785;28;20470;-62
2021/06/09 09:49:03;;;;;;;7.18;5.70;;;25.20;95.70;;;;;;10241647;28;20055;-62
2021/06/09 09:54:07;;;;;;;5.88;5.15;;;25.90;91.80;;;;;;10291792;28;20549;-62
2021/06/09 09:59:10;;;;;;;6.63;5.35;;;25.80;88.90;;;;;;10296352;28;20047;-63
2021/06/09 10:04:17;;;;;;;7.47;4.95;;;25.60;90.60;;;;;;10273776;28;20758;-62
2021/06/09 10:09:35;;;;;;;6.75;5.10;;;25.80;89.70;;;;;;10292763;28;20046;-62
2021/06/09 10:14:45;;;;;;;7.15;4.72;;;25.80;89.90;;;;;;10296295;28;20069;-63
2021/06/09 10:19:58;;;;;;;4.75;4.35;;;25.80;88.30;;;;;;10303076;28;20608;-62
2021/06/09 10:25:08;;;;;;;8.13;4.63;;;24.90;83.50;;;;;;10247072;28;20093;-62
2021/06/09 10:30:26;;;;;;;6.85;3.75;;;25.00;85.50;;;;;;10292923;28;20042;-62
2021/06/09 10:35:31;;;;;;;6.00;4.60;;;25.20;83.50;;;;;;10246294;28;20389;-62
2021/06/09 10:40:34;;;;;;;8.10;3.85;;;25.50;83.10;;;;;;10283428;28;20541;-62
2021/06/09 10:45:39;;;;;;;5.20;3.30;;;25.00;89.60;;;;;;10294321;28;20060;-62
2021/06/09 10:50:41;;;;;;;5.47;3.27;;;26.30;81.30;;;;;;10290689;28;20178;-62
2021/06/09 10:55:44;;;;;;;3.42;2.92;;;26.10;77.00;;;;;;10284368;28;20820;-62
2021/06/09 11:00:45;;;;;;;3.30;3.00;;;26.60;75.90;;;;;;10289042;28;20475;-62
2021/06/09 11:05:48;;;;;;;3.38;3.00;;;26.90;76.00;;;;;;10296822;28;20126;-63
2021/06/09 11:10:50;;;;;;;4.38;3.85;;;26.70;76.30;;;;;;10292705;28;20047;-62
2021/06/09 11:16:07;;;;;;;5.50;3.85;;;26.30;76.00;;;;;;10279701;28;20077;-62
2021/06/09 11:21:10;;;;;;;6.03;3.53;;;26.30;78.40;;;;;;10294936;28;20556;-63
2021/06/09 11:26:30;;;;;;;3.95;3.58;;;26.00;78.40;;;;;;10292428;28;20082;-64
2021/06/09 11:31:32;;;;;;;4.47;4.07;;;25.80;81.90;;;;;;10231201;28;20090;-63
2021/06/09 11:36:43;;;;;;;3.58;3.28;;;25.90;78.60;;;;;;10294876;28;20091;-63
2021/06/09 11:41:48;;;;;;;4.78;3.58;;;25.70;78.80;;;;;;10283223;28;20065;-62
2021/06/09 11:46:49;;;;;;;4.05;3.38;;;25.40;77.70;;;;;;10316792;28;20061;-63
2021/06/09 11:52:00;;;;;;;4.70;3.03;;;25.70;79.60;;;;;;10287948;28;20054;-62
2021/06/09 11:57:06;;;;;;;3.47;2.65;;;25.70;76.40;;;;;;10299194;28;20432;-63
2021/06/09 12:02:21;;;;;;;5.15;2.72;;;25.90;75.60;;;;;;10311426;28;20046;-62
2021/06/09 12:07:26;;;;;;;2.35;2.15;;;26.30;73.20;;;;;;10293237;28;20085;-62
2021/06/09 12:12:32;;;;;;;5.30;2.70;;;26.50;73.00;;;;;;10278331;28;20050;-61
2021/06/09 12:17:36;;;;;;;1.95;1.77;;;26.70;70.80;;;;;;10290234;28;20050;-62
2021/06/09 12:22:47;;;;;;;3.47;2.30;;;27.30;68.50;;;;;;10311136;28;20050;-62
2021/06/09 12:28:08;;;;;;;1.80;1.70;;;26.90;69.40;;;;;;10310562;28;20100;-62
2021/06/09 12:33:10;;;;;;;2.75;1.83;;;27.10;67.40;;;;;;10307232;28;20073;-62
2021/06/09 12:38:12;;;;;;;2.40;2.15;;;27.70;67.40;;;;;;10309216;28;20069;-63
2021/06/09 12:43:16;;;;;;;3.65;2.65;;;28.00;65.10;;;;;;10297682;28;20045;-62
2021/06/09 12:48:20;;;;;;;2.75;2.55;;;28.40;68.00;;;;;;10303524;28;20050;-62
2021/06/09 12:53:24;;;;;;;1.60;1.40;;;28.80;66.30;;;;;;10298107;28;20050;-62
2021/06/09 12:58:29;;;;;;;2.22;1.35;;;28.50;62.10;;;;;;10286938;28;20050;-62
2021/06/09 13:03:43;;;;;;;1.53;1.43;;;28.10;60.90;;;;;;10296588;28;20055;-62
2021/06/09 13:08:53;;;;;;;3.53;1.20;;;28.50;61.70;;;;;;10296746;28;20101;-62
2021/06/09 13:14:06;;;;;;;1.58;0.90;;;28.40;61.40;;;;;;10280831;28;20043;-62
2021/06/09 13:19:10;;;;;;;2.25;1.10;;;28.20;58.90;;;;;;10283662;28;20047;-62
2021/06/09 13:24:37;;;;;;;1.20;0.75;;;28.10;57.80;;;;;;10287663;28;20104;-62
2021/06/09 13:29:42;;;;;;;1.42;0.95;;;28.70;57.80;;;;;;10244451;28;20412;-62
2021/06/09 13:34:51;;;;;;;1.20;1.07;;;29.60;55.10;;;;;;10288524;28;20067;-64
2021/06/09 13:40:01;;;;;;;1.10;1.00;;;30.10;55.40;;;;;;10284120;28;20054;-64
2021/06/09 13:45:17;;;;;;;1.95;1.35;;;31.00;54.30;;;;;;10289599;28;20065;-64
2021/06/09 13:50:20;;;;;;;1.42;1.33;;;31.00;51.40;;;;;;10291367;28;20563;-64
2021/06/09 13:55:23;;;;;;;1.75;1.48;;;31.40;51.30;;;;;;10292642;28;20049;-64
2021/06/09 14:00:33;;;;;;;5.53;3.83;;;32.10;49.40;;;;;;10289618;28;20083;-64
2021/06/09 14:05:36;;;;;;;1.55;1.45;;;32.40;50.60;;;;;;10301814;28;20103;-62
2021/06/09 14:10:41;;;;;;;1.38;1.20;;;32.30;48.20;;;;;;10296505;28;20054;-65
2021/06/09 14:16:07;;;;;;;1.75;1.40;;;32.30;49.40;;;;;;10301902;28;20116;-65
2021/06/09 14:21:10;;;;;;;2.08;1.40;;;31.80;49.60;;;;;;10244919;28;20051;-63
2021/06/09 14:26:15;;;;;;;2.33;1.33;;;31.90;49.30;;;;;;10295565;28;20462;-64
2021/06/09 14:31:26;;;;;;;1.40;1.30;;;32.10;49.50;;;;;;10297995;28;20104;-64
2021/06/09 14:41:49;;;;;;;1.85;1.30;;;31.60;49.20;;;;;;10284486;28;20054;-65
2021/06/09 14:52:42;;;;;;;1.58;1.30;;;32.50;46.90;;;;;;10287451;28;20046;-65
2021/06/09 14:57:45;;;;;;;1.80;1.30;;;33.00;46.10;;;;;;10243420;28;20050;-65
2021/06/09 15:02:47;;;;;;;2.03;1.10;;;32.70;48.70;;;;;;10299142;28;20051;-64
2021/06/09 15:07:50;;;;;;;1.20;1.10;;;32.70;47.60;;;;;;10302678;28;20054;-64
2021/06/09 15:12:56;;;;;;;1.30;1.20;;;32.70;46.80;;;;;;10290897;28;20130;-64
2021/06/09 15:17:58;;;;;;;1.67;1.08;;;32.50;46.70;;;;;;10300443;28;20553;-64
2021/06/09 15:23:08;;;;;;;2.15;1.20;;;32.50;47.40;;;;;;10284597;28;20070;-64
2021/06/09 15:28:10;;;;;;;2.33;1.40;;;31.80;46.80;;;;;;10291002;28;20097;-65
2021/06/09 15:33:12;;;;;;;2.90;2.10;;;32.30;46.10;;;;;;10286840;28;20074;-65
2021/06/09 15:38:14;;;;;;;2.20;2.00;;;32.10;47.50;;;;;;10288018;28;20070;-65
2021/06/09 15:43:16;;;;;;;2.78;1.73;;;32.50;46.90;;;;;;10283207;28;20061;-65
2021/06/09 15:48:18;;;;;;;2.65;1.90;;;32.80;46.20;;;;;;10287217;28;20117;-64
2021/06/09 15:53:20;;;;;;;2.10;2.00;;;32.90;45.70;;;;;;10307781;28;20132;-64
2021/06/09 15:58:21;;;;;;;3.95;2.22;;;32.40;47.90;;;;;;10289053;28;20047;-64
2021/06/09 16:03:23;;;;;;;4.05;2.85;;;32.10;49.10;;;;;;10296801;28;20105;-65
2021/06/09 16:08:26;;;;;;;5.45;2.45;;;31.80;48.90;;;;;;10273579;28;20055;-64
2021/06/09 16:13:28;;;;;;;3.47;2.60;;;32.30;47.30;;;;;;10290972;28;20070;-64
2021/06/09 16:18:31;;;;;;;3.03;2.50;;;32.30;48.40;;;;;;10287839;28;20066;-65
2021/06/09 16:23:35;;;;;;;2.97;2.67;;;31.90;48.30;;;;;;10285194;28;20089;-65
2021/06/09 16:28:37;;;;;;;3.33;2.30;;;31.90;47.70;;;;;;10297516;28;21453;-64
2021/06/09 16:33:39;;;;;;;3.38;1.83;;;31.30;48.20;;;;;;10282153;28;20447;-64
2021/06/09 16:38:41;;;;;;;4.00;2.20;;;32.30;47.80;;;;;;10281584;28;20107;-64
2021/06/09 16:43:42;;;;;;;3.00;2.80;;;32.00;47.10;;;;;;10285856;28;20482;-65
2021/06/09 16:48:44;;;;;;;4.13;2.00;;;31.90;47.60;;;;;;10297338;28;20054;-64
2021/06/09 16:53:53;;;;;;;4.43;2.17;;;31.60;47.00;;;;;;10291099;28;20090;-64
2021/06/09 16:59:06;;;;;;;2.92;2.10;;;31.70;46.30;;;;;;10261817;28;20497;-64
2021/06/09 17:04:08;;;;;;;2.50;2.30;;;31.60;46.70;;;;;;10297588;28;20160;-64
2021/06/09 17:09:11;;;;;;;3.70;2.40;;;31.90;46.70;;;;;;10310007;28;20132;-64
2021/06/09 17:14:14;;;;;;;2.33;1.98;;;31.40;47.10;;;;;;10299799;28;20077;-63
2021/06/09 17:19:17;;;;;;;2.08;1.85;;;31.50;47.20;;;;;;10293363;28;20050;-63
2021/06/09 17:24:18;;;;;;;1.98;1.75;;;31.90;45.60;;;;;;10281498;28;20065;-61
2021/06/09 17:29:20;;;;;;;9.32;2.47;;;32.00;45.00;;;;;;10296393;28;20097;-61
2021/06/09 17:34:23;;;;;;;6.25;2.20;;;32.10;47.00;;;;;;10292695;28;20476;-62
2021/06/09 17:39:25;;;;;;;2.92;2.10;;;32.40;48.40;;;;;;10297296;28;20054;-63
2021/06/09 17:44:26;;;;;;;3.78;2.10;;;32.50;48.10;;;;;;10280172;28;20054;-64
2021/06/09 17:49:31;;;;;;;4.03;1.77;;;32.50;48.50;;;;;;10296748;28;20131;-63
2021/06/09 17:54:32;;;;;;;2.30;2.13;;;32.30;51.60;;;;;;10298303;28;20050;-63
2021/06/09 17:59:36;;;;;;;2.85;2.03;;;31.60;51.00;;;;;;10296420;28;20746;-63
2021/06/09 18:04:39;;;;;;;13.07;2.43;;;31.80;48.00;;;;;;10294904;28;20108;-63
2021/06/09 18:09:41;;;;;;;3.95;2.67;;;31.90;48.40;;;;;;10286611;28;20277;-64
2021/06/09 18:14:42;;;;;;;3.47;2.67;;;31.60;49.70;;;;;;10290978;28;20098;-62
2021/06/09 18:19:44;;;;;;;3.30;2.50;;;30.00;51.10;;;;;;10301924;28;20568;-62
2021/06/09 18:24:46;;;;;;;5.47;2.88;;;29.60;54.00;;;;;;10295997;28;20073;-63
2021/06/09 18:29:47;;;;;;;4.10;3.70;;;29.40;54.90;;;;;;10280096;28;20221;-65
2021/06/09 18:34:49;;;;;;;4.95;2.80;;;28.90;55.20;;;;;;10281493;28;20081;-64
2021/06/09 18:39:52;;;;;;;3.28;2.53;;;28.30;59.50;;;;;;10290726;28;20449;-64
2021/06/09 18:44:54;;;;;;;4.50;2.90;;;27.70;61.60;;;;;;10284440;28;20109;-65
2021/06/09 18:49:56;;;;;;;2.78;2.00;;;27.20;63.70;;;;;;10286361;28;20472;-64
2021/06/09 18:54:58;;;;;;;4.65;3.75;;;26.60;66.70;;;;;;10291376;28;20379;-64
2021/06/09 19:00:00;;;;;;;7.13;3.75;;;26.20;70.50;;;;;;10280150;28;20109;-64
2021/06/09 19:05:05;;;;;;;4.68;4.10;;;25.90;73.50;;;;;;10275015;28;20055;-66
2021/06/09 19:10:08;;;;;;;7.80;5.20;;;25.70;76.20;;;;;;10273261;28;20490;-66
2021/06/09 19:15:12;;;;;;;5.07;4.53;;;25.50;79.20;;;;;;10291058;28;20045;-68
2021/06/09 19:20:16;;;;;;;3.40;3.13;;;25.10;82.10;;;;;;10289042;28;20136;-65
2021/06/09 19:25:20;;;;;;;4.15;3.40;;;24.50;81.10;;;;;;10295590;28;20129;-67
2021/06/09 19:30:24;;;;;;;7.55;4.47;;;24.40;83.10;;;;;;10285578;28;20051;-68
2021/06/09 19:35:28;;;;;;;5.40;4.32;;;24.10;87.30;;;;;;10294495;28;20129;-67
2021/06/09 19:40:32;;;;;;;7.13;4.22;;;24.00;94.40;;;;;;10287834;28;20078;-67
2021/06/09 19:45:33;;;;;;;5.45;4.10;;;23.90;97.80;;;;;;10291662;28;20085;-65
2021/06/09 19:50:35;;;;;;;6.93;4.40;;;23.70;99.60;;;;;;10316839;28;20046;-68
2021/06/09 19:55:39;;;;;;;8.52;4.43;;;23.40;99.90;;;;;;10284108;28;20046;-67
2021/06/09 20:00:41;;;;;;;5.75;5.13;;;23.30;99.90;;;;;;10293323;28;20042;-68
2021/06/09 20:05:42;;;;;;;6.90;6.15;;;23.00;99.90;;;;;;10278021;28;20104;-67
2021/06/09 20:10:44;;;;;;;6.20;5.60;;;22.80;99.90;;;;;;10289867;28;20117;-66
2021/06/09 20:15:46;;;;;;;6.82;5.35;;;22.40;99.90;;;;;;10277196;28;20129;-67
2021/06/09 20:20:48;;;;;;;9.90;5.50;;;22.50;99.90;;;;;;10286051;28;20046;-66
2021/06/09 20:30:52;;;;;;;10.90;5.90;;;22.20;99.90;;;;;;10278284;28;20085;-66
2021/06/09 20:35:54;;;;;;;9.95;5.80;;;22.20;99.90;;;;;;10281085;28;20551;-66
2021/06/09 20:40:55;;;;;;;10.02;5.90;;;22.00;99.90;;;;;;10303287;28;20110;-65
2021/06/09 20:45:57;;;;;;;7.40;6.20;;;22.10;99.90;;;;;;10292053;28;20046;-65
2021/06/09 20:50:59;;;;;;;6.55;5.85;;;21.80;99.90;;;;;;10285112;28;20568;-65
2021/06/09 20:56:02;;;;;;;7.68;5.60;;;21.70;99.90;;;;;;10302551;28;20046;-65
2021/06/09 21:01:04;;;;;;;9.00;5.68;;;21.60;99.90;;;;;;10300257;28;20077;-64
2021/06/09 21:06:06;;;;;;;9.98;6.28;;;21.70;99.90;;;;;;10298039;28;20146;-65
2021/06/09 21:11:08;;;;;;;8.07;6.20;;;21.60;99.90;;;;;;10293915;28;23864;-63
2021/06/09 21:16:10;;;;;;;18.83;7.00;;;21.60;99.90;;;;;;10289772;28;20073;-64
2021/06/09 21:21:12;;;;;;;20.52;7.75;;;21.40;99.90;;;;;;10281717;28;20058;-65
2021/06/09 21:26:14;;;;;;;12.82;8.07;;;21.30;99.90;;;;;;10297124;28;20144;-64
2021/06/09 21:31:15;;;;;;;14.15;7.90;;;21.30;99.90;;;;;;10284917;28;20493;-64
2021/06/09 21:36:18;;;;;;;13.70;8.70;;;21.10;99.90;;;;;;10293785;28;20073;-65
2021/06/09 21:41:20;;;;;;;14.02;8.07;;;21.00;99.90;;;;;;10292856;28;20165;-65
2021/06/09 21:46:22;;;;;;;10.18;7.50;;;20.90;99.90;;;;;;10285745;28;20108;-64
2021/06/09 21:51:23;;;;;;;10.38;7.65;;;20.80;99.90;;;;;;10290623;28;20041;-64
2021/06/09 21:56:25;;;;;;;10.15;7.65;;;20.70;99.90;;;;;;10288683;28;20051;-64
2021/06/09 22:01:27;;;;;;;10.27;7.45;;;20.60;99.90;;;;;;10291552;28;20070;-64
2021/06/09 22:06:29;;;;;;;8.05;7.18;;;20.40;99.90;;;;;;10286262;28;20069;-63
2021/06/09 22:11:31;;;;;;;10.00;7.88;;;20.30;99.90;;;;;;10279901;28;20046;-64
2021/06/09 22:16:34;;;;;;;9.20;7.32;;;20.10;99.90;;;;;;10285203;28;20528;-65
2021/06/09 22:21:36;;;;;;;9.50;5.65;;;20.00;99.90;;;;;;10283174;28;20609;-63
2021/06/09 22:26:37;;;;;;;7.93;6.03;;;19.80;99.90;;;;;;10279647;28;20054;-63
2021/06/09 22:31:39;;;;;;;6.88;5.50;;;19.80;99.90;;;;;;10291697;28;20117;-65
2021/06/09 22:36:41;;;;;;;7.70;5.53;;;19.80;99.90;;;;;;10292759;28;20416;-64
2021/06/09 22:41:44;;;;;;;11.85;6.25;;;19.70;99.90;;;;;;10279672;28;20385;-64
2021/06/09 22:46:45;;;;;;;8.45;6.10;;;19.60;99.90;;;;;;10301074;28;20448;-65
2021/06/09 22:51:47;;;;;;;7.38;5.75;;;19.50;99.90;;;;;;10286256;28;20548;-64
2021/06/09 22:56:49;;;;;;;7.70;5.75;;;19.40;99.90;;;;;;10282013;28;20070;-64
2021/06/09 23:01:51;;;;;;;13.80;6.30;;;19.20;99.90;;;;;;10277647;28;20070;-64
2021/06/09 23:06:53;;;;;;;7.45;5.80;;;19.20;99.90;;;;;;10282253;28;20517;-64
2021/06/09 23:11:55;;;;;;;12.55;6.43;;;19.10;99.90;;;;;;10282748;28;20074;-64
2021/06/09 23:16:56;;;;;;;7.10;5.63;;;19.00;99.90;;;;;;10297712;28;20042;-63
2021/06/09 23:21:58;;;;;;;9.93;6.28;;;18.90;99.90;;;;;;10280377;28;20568;-58
2021/06/09 23:27:00;;;;;;;9.68;5.82;;;18.70;99.90;;;;;;10286245;28;20109;-59
2021/06/09 23:32:01;;;;;;;7.45;6.45;;;18.60;99.90;;;;;;10278657;28;20085;-59
2021/06/09 23:37:03;;;;;;;9.10;6.65;;;18.50;99.90;;;;;;10280100;28;20042;-59
2021/06/09 23:42:06;;;;;;;12.48;6.18;;;18.50;99.90;;;;;;10282307;28;20453;-59
2021/06/09 23:47:08;;;;;;;8.27;6.22;;;18.50;99.90;;;;;;10297601;28;20476;-59
2021/06/09 23:52:28;;;;;;;12.52;6.90;;;18.50;99.90;;;;;;10280598;28;20191;-59
2021/06/09 23:57:31;;;;;;;10.52;6.35;;;18.40;99.90;;;;;;10255441;28;20168;-59
